Holly Ridge, NC (28445)

3:24 AM EDT on May 24, 2017 (GMT -0400)
Morris Landing Area | | Change Station
Active Advisory: Beach Hazard Statement

Elev 10 ft 34.47 °N, 77.51 °W | Updated 24 seconds ago

Overcast
Overcast
69.6 °F
Feels Like 69.6 °F
N
3.0
Wind Variable Wind from WSW

Today
High -- | Low -- °F
--% Chance of Precip.
Yesterday
High -- | Low -- °F
Precip. -- in
Pressure 29.67 in
Visibility 10.0 miles
Clouds Mostly Cloudy 2300 ft
Overcast 12000 ft
Dew Point 68 °F
Humidity 95%
Rainfall 0.00 in
Snow Depth Not available.
6:01 AM 8:12 PM
Waning Crescent, 4% visible
METAR KNCA 240556Z AUTO 21006KT 10SM BKN023 OVC120 21/21 A2966 RMK AO2 SLP046 60003 T02110211 10211 20211 58010
Pressure 29.67 in
Visibility 10.0 miles
Clouds Mostly Cloudy 2300 ft
Overcast 12000 ft
Dew Point 68 °F
Humidity 95%
Rainfall 0.00 in
Snow Depth Not available.
6:01 AM 8:12 PM
Waning Crescent, 4% visible
METAR KNCA 240556Z AUTO 21006KT 10SM BKN023 OVC120 21/21 A2966 RMK AO2 SLP046 60003 T02110211 10211 20211 58010

Get Your Daily Forecast Email!

Thanks for signing up!

Be on the lookout for a verification email in your inbox.

You'll start receiving severe weather alerts in your inbox..

×

10-Day Weather Forecast

Almanac

Astronomy

May. 24, 2017 Rise Set
Actual Time
Civil Twilight
Nautical Twilight
Astronomical Twilight
Moon
Length of Visible Light
Length of Day
Tomorrow will be .
, % of the Moon is Illuminated

Today's Extremes

State Highs State Lows

Community

WunderPhotos

Category 6

Welcome to Category 6. This is the collective home for Weather Underground's featured writeups by Dr. Jeff Masters (right), Bob Henson (left), Chris Burt, and other regular contributors.

Nearby

Air Quality

  Air Quality AQ Index Pollutant
Not available.

Snow Depth

Station Depth Elevation

Earthquake Activity

City Distance Mag. Time & Date
Minimum magnitude displayed is 2.5.

Coastal Water Temperatures

Place Temperature

Stations

Nearby Weather Stations

Station Location Temp. Windchill Dew Point Humidity Wind Precip. Elev Updated Type
                   

Watches & Warnings

Beach Hazard Statement
Issued: 8:06 PM EDT May. 23, 2017 – National Weather Service

... Beach hazards statement in effect from 8 am EDT Wednesday
through Wednesday evening...

The National Weather Service in Newport/Morehead City has issued
a beach hazards statement, which is in effect from 8 am EDT
Wednesday through Wednesday evening.

* Hazards... high risk of rip currents.

* Location... beaches of Onslow County

* timing and tides... the most likely time for strong rip currents
to occur is a couple hours either side of low tide, which will
occur around 1 PM Wednesday.

Precautionary/preparedness actions...

If caught in a rip current remain calm. Don't fight the current.
Swim in a direction following the shoreline. When out of the
current, swim back to shore. If tired, float or tread water until
out of the rip current. If unable to escape, face the shore and
call or wave for help.